createdAt,value
2022-09-22T00:01:33.074Z,2.05
2022-09-22T00:04:06.072Z,2.47
2022-09-22T00:06:37.350Z,8.30
2022-09-22T00:09:05.747Z,5.57
2022-09-22T00:11:37.023Z,6.45
2022-09-22T00:14:10.465Z,3.55
2022-09-22T00:16:42.142Z,6.03
2022-09-22T00:19:14.988Z,2.85
2022-09-22T00:21:42.628Z,6.03
2022-09-22T00:24:10.413Z,3.22
2022-09-22T00:26:39.083Z,5.93
2022-09-22T00:29:09.554Z,1.02
2022-09-22T00:31:38.999Z,5.30
2022-09-22T00:34:07.168Z,2.70
2022-09-22T00:36:35.336Z,3.78
2022-09-22T00:39:03.072Z,1.60
2022-09-22T00:41:36.470Z,3.05
2022-09-22T00:44:21.895Z,1.48
2022-09-22T00:47:31.247Z,9.40
2022-09-22T00:50:12.867Z,3.10
2022-09-22T00:52:54.438Z,1.67
2022-09-22T00:55:29.037Z,1.33
2022-09-22T00:57:57.521Z,5.10
2022-09-22T01:00:25.188Z,2.65
2022-09-22T01:02:58.372Z,1.75
2022-09-22T01:05:29.619Z,2.33
2022-09-22T01:07:57.131Z,3.05
2022-09-22T01:10:26.453Z,3.38
2022-09-22T01:13:00.310Z,2.80
2022-09-22T01:15:50.107Z,3.47
2022-09-22T01:18:57.142Z,2.08
2022-09-22T01:21:58.978Z,3.97
2022-09-22T01:24:44.389Z,2.13
2022-09-22T01:27:30.896Z,1.60
2022-09-22T01:30:36.671Z,0.77
2022-09-22T01:33:17.337Z,1.63
2022-09-22T01:35:50.425Z,5.97
2022-09-22T01:38:31.786Z,3.50
2022-09-22T01:41:06.400Z,1.85
2022-09-22T01:43:53.820Z,3.83
2022-09-22T01:46:27.608Z,2.38
2022-09-22T01:48:59.654Z,1.17
2022-09-22T01:51:35.782Z,1.15
2022-09-22T01:54:21.341Z,2.50
2022-09-22T01:56:52.484Z,5.30
2022-09-22T01:59:26.294Z,1.10
2022-09-22T02:02:03.555Z,6.53
2022-09-22T02:04:40.091Z,2.42
2022-09-22T02:07:12.883Z,0.82
2022-09-22T02:09:42.389Z,2.92
2022-09-22T02:12:09.806Z,3.40
2022-09-22T02:14:37.246Z,4.15
2022-09-22T02:17:04.717Z,4.28
2022-09-22T02:19:40.064Z,2.08
2022-09-22T02:22:11.850Z,4.32
2022-09-22T02:24:44.740Z,1.73
2022-09-22T02:27:36.698Z,1.85
2022-09-22T02:30:08.383Z,1.65
2022-09-22T02:32:37.640Z,2.35
2022-09-22T02:35:06.225Z,2.45
2022-09-22T02:37:48.714Z,1.08
2022-09-22T02:43:40.349Z,1.00
2022-09-22T02:46:07.913Z,2.13
2022-09-22T02:48:50.331Z,3.00
2022-09-22T02:51:18.985Z,2.95
2022-09-22T02:53:46.645Z,2.78
2022-09-22T02:56:14.387Z,1.88
2022-09-22T02:58:42.104Z,4.20
2022-09-22T03:01:09.657Z,2.72
2022-09-22T03:03:38.674Z,2.97
2022-09-22T03:06:06.497Z,3.25
2022-09-22T03:08:34.174Z,3.10
2022-09-22T03:11:01.823Z,2.97
2022-09-22T03:13:31.718Z,1.85
2022-09-22T03:15:59.646Z,2.03
2022-09-22T03:18:27.239Z,3.63
2022-09-22T03:20:54.828Z,2.88
2022-09-22T03:23:22.565Z,3.15
2022-09-22T03:25:50.339Z,7.13
2022-09-22T03:28:19.475Z,8.88
2022-09-22T03:30:47.015Z,5.03
2022-09-22T03:33:14.596Z,2.05
2022-09-22T03:35:42.483Z,3.97
2022-09-22T03:38:10.009Z,1.10
2022-09-22T03:40:37.761Z,5.95
2022-09-22T03:43:05.376Z,20.45
2022-09-22T03:45:33.164Z,8.10
2022-09-22T03:48:00.615Z,3.63
2022-09-22T03:50:28.558Z,2.17
2022-09-22T03:52:57.401Z,6.72
2022-09-22T03:55:25.917Z,4.28
2022-09-22T03:57:53.789Z,3.17
2022-09-22T04:00:21.240Z,5.57
2022-09-22T04:02:48.703Z,3.80
2022-09-22T04:05:16.544Z,5.80
2022-09-22T04:07:44.567Z,4.95
2022-09-22T04:10:12.133Z,5.63
2022-09-22T04:12:39.523Z,9.82
2022-09-22T04:15:07.377Z,5.97
2022-09-22T04:17:38.252Z,0.28
2022-09-22T04:20:06.505Z,1.52
2022-09-22T04:22:34.393Z,4.30
2022-09-22T04:25:01.641Z,3.03
2022-09-22T04:27:29.276Z,6.82
2022-09-22T04:29:57.410Z,7.20
2022-09-22T04:32:24.905Z,7.60
2022-09-22T04:34:52.400Z,5.68
2022-09-22T04:37:19.953Z,2.40
2022-09-22T04:39:47.547Z,3.05
2022-09-22T04:42:15.255Z,2.53
2022-09-22T04:44:43.777Z,1.30
2022-09-22T04:47:11.327Z,6.40
2022-09-22T04:49:39.407Z,9.50
2022-09-22T04:52:06.694Z,9.38
2022-09-22T04:54:34.576Z,16.35
2022-09-22T04:57:03.014Z,20.60
2022-09-22T04:59:30.245Z,9.98
2022-09-22T05:01:58.218Z,7.22
2022-09-22T05:04:29.012Z,15.07
2022-09-22T05:06:56.469Z,24.85
2022-09-22T05:09:24.174Z,12.32
2022-09-22T05:11:54.660Z,21.52
2022-09-22T05:14:26.266Z,12.27
2022-09-22T05:16:54.167Z,23.52
2022-09-22T05:19:21.883Z,25.77
2022-09-22T05:21:49.431Z,21.45
2022-09-22T05:24:17.304Z,8.75
2022-09-22T05:26:44.954Z,5.72
2022-09-22T05:29:12.576Z,6.80
2022-09-22T05:31:39.790Z,6.82
2022-09-22T05:34:07.333Z,10.43
2022-09-22T05:36:34.943Z,13.13
2022-09-22T05:39:02.319Z,18.58
2022-09-22T05:41:29.823Z,41.22
2022-09-22T05:43:57.581Z,13.05
2022-09-22T05:46:25.246Z,14.63
2022-09-22T05:48:58.940Z,25.75
2022-09-22T05:51:26.790Z,25.63
2022-09-22T05:53:55.662Z,10.52
2022-09-22T05:56:23.598Z,22.48
2022-09-22T05:58:51.525Z,13.57
2022-09-22T06:01:19.596Z,23.35
2022-09-22T06:03:48.057Z,18.88
2022-09-22T06:06:16.179Z,24.95
2022-09-22T06:08:48.392Z,23.67
2022-09-22T06:11:16.824Z,22.23
2022-09-22T06:13:44.705Z,26.30
2022-09-22T06:16:15.458Z,26.17
2022-09-22T06:18:50.393Z,23.77
2022-09-22T06:21:19.002Z,26.95
2022-09-22T06:23:46.884Z,35.28
2022-09-22T06:26:16.789Z,33.60
2022-09-22T06:28:44.973Z,28.40
2022-09-22T06:31:14.751Z,33.15
2022-09-22T06:33:48.378Z,24.77
2022-09-22T06:36:31.395Z,29.58
2022-09-22T06:38:59.724Z,22.35
2022-09-22T06:41:33.459Z,24.55
2022-09-22T06:44:01.234Z,13.10
2022-09-22T06:46:31.246Z,22.35
2022-09-22T06:51:31.625Z,29.23
2022-09-22T06:54:00.162Z,21.55
2022-09-22T06:56:30.659Z,25.75
2022-09-22T06:59:09.855Z,26.45
2022-09-22T07:01:46.384Z,30.25
2022-09-22T07:04:14.999Z,25.60
2022-09-22T07:06:43.446Z,25.20
2022-09-22T07:09:11.872Z,21.95
2022-09-22T07:11:42.648Z,16.90
2022-09-22T07:14:12.715Z,28.08
2022-09-22T07:19:09.165Z,34.60
2022-09-22T07:21:37.928Z,24.33
2022-09-22T07:24:08.423Z,24.60
2022-09-22T07:26:38.375Z,29.27
2022-09-22T07:29:08.645Z,23.45
2022-09-22T07:31:37.122Z,32.28
2022-09-22T07:34:05.224Z,27.80
2022-09-22T07:36:34.370Z,35.10
2022-09-22T07:39:11.328Z,25.88
2022-09-22T07:41:46.084Z,19.27
2022-09-22T07:44:38.822Z,30.00
2022-09-22T07:49:38.187Z,22.90
2022-09-22T07:52:06.190Z,27.02
2022-09-22T07:54:36.980Z,39.50
2022-09-22T07:57:06.831Z,22.15
2022-09-22T07:59:36.109Z,20.98
2022-09-22T08:02:07.025Z,24.42
2022-09-22T08:04:35.577Z,25.33
2022-09-22T08:07:03.890Z,22.83
2022-09-22T08:09:31.822Z,25.05
2022-09-22T08:12:00.105Z,23.17
2022-09-22T08:14:27.833Z,36.60
2022-09-22T08:16:55.628Z,20.52
2022-09-22T08:19:23.998Z,28.10
2022-09-22T08:21:54.294Z,27.27
2022-09-22T08:24:24.136Z,23.48
2022-09-22T08:26:53.890Z,24.65
2022-09-22T08:29:21.942Z,19.17
2022-09-22T08:31:51.576Z,22.63
2022-09-22T08:34:19.143Z,31.60
2022-09-22T08:36:47.486Z,28.70
2022-09-22T08:39:16.204Z,38.67
2022-09-22T08:42:09.457Z,66.80
2022-09-22T08:44:53.830Z,33.85
2022-09-22T08:48:03.130Z,17.90
2022-09-22T08:51:09.613Z,23.58
2022-09-22T08:53:46.233Z,23.52
2022-09-22T08:56:32.814Z,38.63
2022-09-22T08:59:21.359Z,25.88
2022-09-22T09:02:26.320Z,43.25
2022-09-22T09:05:16.668Z,33.55
2022-09-22T09:08:07.246Z,25.90
2022-09-22T09:10:41.122Z,27.35
2022-09-22T09:13:38.446Z,18.02
2022-09-22T09:16:24.276Z,21.02
2022-09-22T09:19:08.101Z,22.05
2022-09-22T09:21:39.474Z,18.95
2022-09-22T09:27:14.171Z,36.53
2022-09-22T09:30:09.948Z,24.83
2022-09-22T09:33:04.777Z,31.48
2022-09-22T09:38:17.296Z,28.83
2022-09-22T09:40:54.380Z,19.83
2022-09-22T09:43:24.537Z,31.90
2022-09-22T09:46:01.230Z,21.52
2022-09-22T09:48:41.274Z,48.65
2022-09-22T09:51:17.748Z,35.70
2022-09-22T09:53:56.022Z,32.70
2022-09-22T09:56:30.678Z,37.83
2022-09-22T09:59:21.050Z,37.30
2022-09-22T10:01:50.920Z,25.83
2022-09-22T10:04:31.622Z,35.92
2022-09-22T10:07:16.769Z,28.38
2022-09-22T10:09:45.251Z,42.25
2022-09-22T10:12:30.761Z,42.20
2022-09-22T10:15:00.138Z,34.10
2022-09-22T10:17:45.039Z,22.52
2022-09-22T10:20:34.087Z,41.17
2022-09-22T10:23:21.661Z,22.90
2022-09-22T10:25:50.789Z,35.35
2022-09-22T10:28:19.475Z,32.72
2022-09-22T10:31:02.656Z,27.00
2022-09-22T10:33:31.709Z,34.70
2022-09-22T10:36:12.194Z,32.30
2022-09-22T10:38:45.048Z,25.42
2022-09-22T10:41:27.382Z,42.60
2022-09-22T10:46:53.118Z,36.97
2022-09-22T10:49:52.537Z,26.67
2022-09-22T10:52:44.442Z,36.42
2022-09-22T10:55:33.498Z,20.25
2022-09-22T10:58:07.317Z,63.53
2022-09-22T11:00:41.217Z,65.55
2022-09-22T11:03:24.602Z,44.58
2022-09-22T11:06:48.908Z,41.03
2022-09-22T11:09:42.421Z,24.88
2022-09-22T11:12:21.646Z,29.50
2022-09-22T11:15:11.201Z,47.78
2022-09-22T11:18:09.103Z,50.30
2022-09-22T11:20:45.036Z,42.67
2022-09-22T11:23:41.900Z,40.47
2022-09-22T11:29:05.798Z,32.28
2022-09-22T11:31:48.314Z,53.40
2022-09-22T11:34:34.130Z,36.28
2022-09-22T11:37:25.842Z,22.73
2022-09-22T11:40:25.690Z,27.35
2022-09-22T11:43:20.854Z,38.83
2022-09-22T11:46:06.464Z,37.00
2022-09-22T11:48:54.832Z,27.38
2022-09-22T11:51:37.153Z,36.78
2022-09-22T11:57:11.771Z,42.33
2022-09-22T12:00:06.054Z,34.85
2022-09-22T12:02:42.053Z,24.23
2022-09-22T12:08:34.997Z,43.22
2022-09-22T12:11:03.580Z,39.47
2022-09-22T12:13:31.607Z,33.88
2022-09-22T12:16:18.587Z,42.80
2022-09-22T12:19:23.072Z,38.88
2022-09-22T12:22:07.662Z,18.75
2022-09-22T12:24:36.360Z,34.60
2022-09-22T12:27:23.536Z,24.60
2022-09-22T12:30:25.926Z,45.67
2022-09-22T12:32:53.606Z,52.15
2022-09-22T12:35:31.476Z,12.40
2022-09-22T12:38:02.749Z,60.10
2022-09-22T12:40:37.306Z,35.10
2022-09-22T12:43:06.184Z,37.65
2022-09-22T12:45:36.422Z,40.63
2022-09-22T12:48:34.627Z,35.05
2022-09-22T12:51:27.009Z,22.52
2022-09-22T12:54:23.410Z,19.38
2022-09-22T12:57:01.055Z,31.73
2022-09-22T12:59:38.650Z,31.23
2022-09-22T13:02:33.021Z,14.85
2022-09-22T13:05:01.728Z,15.68
2022-09-22T13:07:40.434Z,19.38
2022-09-22T13:10:26.619Z,18.90
2022-09-22T13:13:09.688Z,33.47
2022-09-22T13:15:46.632Z,31.67
2022-09-22T13:18:37.336Z,31.98
2022-09-22T13:21:14.589Z,19.92
2022-09-22T13:23:58.536Z,28.67
2022-09-22T13:26:28.748Z,26.95
2022-09-22T13:29:19.736Z,25.63
2022-09-22T13:31:48.614Z,18.02
2022-09-22T13:34:48.359Z,35.75
2022-09-22T13:37:22.539Z,16.17
2022-09-22T13:39:55.467Z,22.48
2022-09-22T13:42:31.507Z,10.45
2022-09-22T13:47:28.985Z,33.47
2022-09-22T13:50:03.050Z,43.92
2022-09-22T13:52:33.457Z,54.17
2022-09-22T13:55:16.818Z,50.88
2022-09-22T13:57:45.654Z,29.75
2022-09-22T14:00:26.530Z,64.95
2022-09-22T14:02:59.060Z,37.97
2022-09-22T14:05:30.448Z,36.78
2022-09-22T14:08:17.197Z,38.55
2022-09-22T14:10:47.966Z,18.65
2022-09-22T14:13:39.582Z,17.27
2022-09-22T14:16:20.944Z,17.92
2022-09-22T14:18:50.105Z,21.75
2022-09-22T14:21:18.233Z,21.48
2022-09-22T14:23:51.306Z,25.35
2022-09-22T14:26:28.274Z,15.60
2022-09-22T14:28:59.201Z,13.43
2022-09-22T14:31:32.423Z,16.77
2022-09-22T14:34:03.344Z,21.42
2022-09-22T14:36:31.092Z,12.05
2022-09-22T14:39:09.918Z,18.05
2022-09-22T14:41:38.521Z,12.88
2022-09-22T14:44:27.200Z,19.55
2022-09-22T14:47:07.170Z,11.70
2022-09-22T14:49:37.619Z,18.42
2022-09-22T14:52:12.015Z,14.82
2022-09-22T14:54:40.042Z,21.33
2022-09-22T14:57:09.032Z,7.45
2022-09-22T14:59:57.188Z,16.63
2022-09-22T15:02:37.818Z,13.35
2022-09-22T15:05:05.752Z,17.70
2022-09-22T15:07:49.556Z,12.52
2022-09-22T15:10:22.123Z,10.63
2022-09-22T15:13:24.241Z,7.30
2022-09-22T15:16:00.580Z,7.70
2022-09-22T15:18:32.211Z,5.65
2022-09-22T15:21:04.180Z,11.82
2022-09-22T15:23:43.858Z,11.90
2022-09-22T15:26:25.774Z,20.33
2022-09-22T15:28:54.715Z,7.63
2022-09-22T15:31:31.529Z,11.73
2022-09-22T15:34:01.554Z,5.60
2022-09-22T15:36:32.180Z,7.78
2022-09-22T15:39:01.151Z,6.15
2022-09-22T15:41:39.272Z,7.07
2022-09-22T15:44:07.246Z,8.75
2022-09-22T15:46:41.432Z,9.65
2022-09-22T15:49:20.849Z,4.00
2022-09-22T15:51:52.059Z,10.18
2022-09-22T15:54:24.017Z,4.05
2022-09-22T15:56:55.184Z,5.88
2022-09-22T15:59:33.504Z,11.77
2022-09-22T16:02:01.366Z,4.50
2022-09-22T16:04:31.515Z,3.63
2022-09-22T16:07:08.571Z,8.70
2022-09-22T16:09:36.731Z,8.00
2022-09-22T16:12:08.287Z,13.88
2022-09-22T16:14:36.911Z,8.40
2022-09-22T16:17:05.469Z,5.90
2022-09-22T16:19:33.085Z,9.65
2022-09-22T16:22:00.884Z,5.50
2022-09-22T16:24:29.244Z,7.88
2022-09-22T16:26:57.465Z,7.47
2022-09-22T16:29:25.914Z,12.65
2022-09-22T16:31:54.151Z,5.10
2022-09-22T16:34:21.855Z,15.00
2022-09-22T16:36:49.605Z,8.70
2022-09-22T16:39:17.591Z,12.95
2022-09-22T16:41:46.049Z,1.52
2022-09-22T16:44:13.931Z,48.70
2022-09-22T16:46:41.785Z,6.65
2022-09-22T16:49:12.180Z,7.30
2022-09-22T16:51:41.932Z,3.35
2022-09-22T16:54:13.324Z,6.50
2022-09-22T16:56:46.171Z,4.30
2022-09-22T16:59:17.834Z,6.47
2022-09-22T17:01:45.963Z,3.47
2022-09-22T17:04:16.482Z,8.77
2022-09-22T17:06:44.348Z,2.38
2022-09-22T17:09:12.683Z,3.38
2022-09-22T17:11:42.257Z,0.93
2022-09-22T17:14:14.579Z,5.57
2022-09-22T17:16:43.668Z,5.88
2022-09-22T17:19:18.483Z,3.85
2022-09-22T17:21:52.001Z,1.27
2022-09-22T17:24:19.829Z,7.00
2022-09-22T17:26:53.758Z,0.77
2022-09-22T17:29:31.535Z,5.35
2022-09-22T17:32:02.692Z,3.08
2022-09-22T17:34:31.562Z,6.15
2022-09-22T17:36:59.161Z,2.05
2022-09-22T17:39:28.614Z,5.07
2022-09-22T17:41:56.856Z,2.63
2022-09-22T17:44:31.064Z,6.10
2022-09-22T17:47:17.268Z,2.88
2022-09-22T17:50:03.574Z,1.13
2022-09-22T17:52:40.010Z,1.67
2022-09-22T17:55:22.015Z,2.45
2022-09-22T17:57:51.805Z,7.55
2022-09-22T18:00:23.725Z,66.15
2022-09-22T18:02:55.590Z,46.70
2022-09-22T18:05:32.324Z,66.60
2022-09-22T18:08:00.222Z,31.13
2022-09-22T18:10:32.400Z,3.70
2022-09-22T18:13:00.792Z,5.20
2022-09-22T18:15:29.316Z,1.98
2022-09-22T18:17:58.190Z,4.10
2022-09-22T18:20:27.646Z,2.33
2022-09-22T18:22:57.790Z,6.22
2022-09-22T18:27:55.101Z,2.45
2022-09-22T18:30:23.629Z,3.13
2022-09-22T18:32:51.978Z,1.55
2022-09-22T18:35:20.247Z,3.28
2022-09-22T18:37:47.883Z,2.90
2022-09-22T18:40:17.087Z,3.33
2022-09-22T18:42:44.827Z,3.50
2022-09-22T18:45:14.327Z,1.83
2022-09-22T18:47:43.265Z,3.65
2022-09-22T18:50:12.012Z,4.90
2022-09-22T18:52:43.081Z,1.83
2022-09-22T18:55:12.023Z,1.98
2022-09-22T18:57:39.475Z,4.28
2022-09-22T19:00:07.634Z,3.20
2022-09-22T19:02:35.584Z,3.55
2022-09-22T19:05:03.240Z,0.60
2022-09-22T19:07:42.821Z,4.30
2022-09-22T19:10:16.437Z,4.18
2022-09-22T19:12:44.242Z,4.35
2022-09-22T19:15:15.366Z,3.28
2022-09-22T19:17:44.680Z,3.63
2022-09-22T19:20:18.420Z,4.15
2022-09-22T19:22:46.909Z,2.70
2022-09-22T19:25:15.038Z,1.65
2022-09-22T19:27:44.208Z,2.40
2022-09-22T19:30:15.088Z,2.30
2022-09-22T19:32:42.940Z,3.17
2022-09-22T19:35:10.909Z,0.68
2022-09-22T19:37:41.341Z,2.20
2022-09-22T19:40:13.250Z,4.20
2022-09-22T19:42:41.060Z,2.55
2022-09-22T19:45:09.225Z,2.05
2022-09-22T19:47:37.755Z,2.53
2022-09-22T19:50:07.927Z,3.22
2022-09-22T19:52:36.107Z,2.97
2022-09-22T19:55:05.507Z,2.05
2022-09-22T19:57:33.146Z,1.60
2022-09-22T20:00:00.641Z,2.78
2022-09-22T20:02:29.370Z,2.05
2022-09-22T20:04:57.311Z,2.35
2022-09-22T20:07:27.794Z,3.75
2022-09-22T20:09:58.068Z,1.55
2022-09-22T20:12:25.678Z,1.77
2022-09-22T20:14:53.369Z,2.40
2022-09-22T20:17:21.205Z,1.20
2022-09-22T20:19:48.850Z,2.22
2022-09-22T20:22:20.885Z,3.72
2022-09-22T20:24:54.146Z,2.88
2022-09-22T20:27:26.839Z,2.58
2022-09-22T20:29:57.307Z,2.35
2022-09-22T20:32:31.606Z,1.58
2022-09-22T20:34:59.606Z,2.53
2022-09-22T20:37:27.240Z,2.00
2022-09-22T20:39:57.088Z,3.08
2022-09-22T20:42:26.680Z,2.53
2022-09-22T20:44:55.067Z,1.38
2022-09-22T20:47:25.564Z,1.70
2022-09-22T20:49:53.312Z,2.10
2022-09-22T20:52:21.187Z,2.33
2022-09-22T20:54:49.094Z,3.28
2022-09-22T20:57:16.997Z,2.03
2022-09-22T20:59:45.926Z,2.17
2022-09-22T21:02:14.598Z,6.05
2022-09-22T21:04:42.486Z,1.73
2022-09-22T21:07:11.567Z,1.95
2022-09-22T21:09:57.747Z,1.67
2022-09-22T21:12:30.245Z,3.58
2022-09-22T21:14:58.646Z,2.28
2022-09-22T21:17:27.887Z,2.78
2022-09-22T21:19:57.715Z,0.63
2022-09-22T21:22:27.441Z,2.90
2022-09-22T21:24:55.293Z,3.10
2022-09-22T21:27:25.162Z,1.13
2022-09-22T21:29:53.292Z,2.03
2022-09-22T21:32:21.034Z,3.85
2022-09-22T21:34:48.527Z,1.85
2022-09-22T21:37:16.329Z,2.95
2022-09-22T21:39:44.967Z,1.80
2022-09-22T21:42:12.739Z,4.40
2022-09-22T21:44:40.458Z,2.83
2022-09-22T21:47:08.226Z,1.55
2022-09-22T21:49:35.897Z,1.88
2022-09-22T21:52:03.547Z,3.00
2022-09-22T21:54:31.237Z,2.17
2022-09-22T21:56:59.160Z,1.17
2022-09-22T21:59:27.658Z,6.90
2022-09-22T22:01:54.905Z,14.02
2022-09-22T22:04:22.675Z,4.43
2022-09-22T22:06:53.492Z,3.20
2022-09-22T22:09:25.379Z,7.78
2022-09-22T22:11:55.698Z,4.03
2022-09-22T22:14:25.754Z,5.80
2022-09-22T22:16:55.775Z,0.90
2022-09-22T22:21:54.253Z,1.45
2022-09-22T22:24:23.580Z,6.85
2022-09-22T22:26:52.801Z,2.00
2022-09-22T22:29:22.237Z,5.68
2022-09-22T22:31:50.756Z,4.93
2022-09-22T22:34:20.400Z,8.27
2022-09-22T22:36:48.828Z,1.92
2022-09-22T22:39:16.680Z,6.57
2022-09-22T22:41:44.657Z,1.83
2022-09-22T22:44:17.805Z,1.80
2022-09-22T22:46:45.773Z,4.85
2022-09-22T22:49:13.631Z,3.53
2022-09-22T22:51:45.329Z,1.35
2022-09-22T22:54:14.548Z,2.13
2022-09-22T22:56:43.792Z,2.47
2022-09-22T22:59:13.349Z,4.03
2022-09-22T23:01:41.719Z,2.28
2022-09-22T23:04:11.289Z,2.75
2022-09-22T23:06:41.812Z,3.10
2022-09-22T23:09:12.149Z,0.90
2022-09-22T23:11:40.901Z,3.42
2022-09-22T23:14:11.458Z,4.63
2022-09-22T23:16:44.668Z,4.30
2022-09-22T23:19:17.405Z,2.95
2022-09-22T23:21:46.819Z,3.75
2022-09-22T23:24:19.280Z,3.58
2022-09-22T23:26:47.810Z,4.35
2022-09-22T23:29:16.311Z,4.15
2022-09-22T23:31:43.937Z,3.75
2022-09-22T23:34:11.648Z,5.22
2022-09-22T23:36:39.846Z,2.05
2022-09-22T23:39:07.282Z,3.55
2022-09-22T23:41:36.903Z,2.55
2022-09-22T23:44:11.839Z,2.85
2022-09-22T23:46:39.207Z,4.60
2022-09-22T23:49:07.320Z,2.30
2022-09-22T23:51:35.017Z,2.63
2022-09-22T23:54:02.777Z,1.65
2022-09-22T23:56:30.279Z,0.63
2022-09-22T23:58:58.138Z,1.65
